sensor_id;sensor_type;location;lat;lon;timestamp;P1;durP1;ratioP1;P2;durP2;ratioP2
24381;SDS011;12502;50.678;7.172;2023-01-05T00:05:01;15.07;;;2.95;;
24381;SDS011;12502;50.678;7.172;2023-01-05T00:10:03;23.00;;;3.55;;
24381;SDS011;12502;50.678;7.172;2023-01-05T00:15:25;11.95;;;2.92;;
24381;SDS011;12502;50.678;7.172;2023-01-05T00:20:56;16.13;;;3.47;;
24381;SDS011;12502;50.678;7.172;2023-01-05T00:26:17;14.82;;;3.13;;
24381;SDS011;12502;50.678;7.172;2023-01-05T00:31:18;14.60;;;2.88;;
24381;SDS011;12502;50.678;7.172;2023-01-05T00:36:20;14.35;;;3.03;;
24381;SDS011;12502;50.678;7.172;2023-01-05T00:41:22;11.63;;;3.20;;
24381;SDS011;12502;50.678;7.172;2023-01-05T00:46:23;15.63;;;2.90;;
24381;SDS011;12502;50.678;7.172;2023-01-05T00:51:25;16.58;;;3.22;;
24381;SDS011;12502;50.678;7.172;2023-01-05T00:56:27;16.40;;;3.55;;
24381;SDS011;12502;50.678;7.172;2023-01-05T01:01:28;13.32;;;3.33;;
24381;SDS011;12502;50.678;7.172;2023-01-05T01:06:30;14.35;;;3.35;;
24381;SDS011;12502;50.678;7.172;2023-01-05T01:11:32;13.48;;;3.08;;
24381;SDS011;12502;50.678;7.172;2023-01-05T01:16:34;17.23;;;3.58;;
24381;SDS011;12502;50.678;7.172;2023-01-05T01:21:36;14.10;;;3.10;;
24381;SDS011;12502;50.678;7.172;2023-01-05T01:26:38;15.23;;;3.30;;
24381;SDS011;12502;50.678;7.172;2023-01-05T01:31:39;14.02;;;3.47;;
24381;SDS011;12502;50.678;7.172;2023-01-05T01:36:41;16.85;;;3.80;;
24381;SDS011;12502;50.678;7.172;2023-01-05T01:41:43;15.77;;;2.97;;
24381;SDS011;12502;50.678;7.172;2023-01-05T01:46:45;19.17;;;3.58;;
24381;SDS011;12502;50.678;7.172;2023-01-05T01:51:46;14.75;;;4.00;;
24381;SDS011;12502;50.678;7.172;2023-01-05T01:56:50;21.25;;;4.68;;
24381;SDS011;12502;50.678;7.172;2023-01-05T02:01:55;16.63;;;3.15;;
24381;SDS011;12502;50.678;7.172;2023-01-05T02:06:59;22.20;;;4.25;;
24381;SDS011;12502;50.678;7.172;2023-01-05T02:12:06;18.17;;;3.70;;
24381;SDS011;12502;50.678;7.172;2023-01-05T02:44:29;19.05;;;3.67;;
24381;SDS011;12502;50.678;7.172;2023-01-05T02:49:35;16.35;;;4.10;;
24381;SDS011;12502;50.678;7.172;2023-01-05T02:54:43;11.55;;;3.17;;
24381;SDS011;12502;50.678;7.172;2023-01-05T02:59:49;15.98;;;3.30;;
24381;SDS011;12502;50.678;7.172;2023-01-05T03:04:55;12.77;;;3.53;;
24381;SDS011;12502;50.678;7.172;2023-01-05T03:10:05;13.70;;;3.40;;
24381;SDS011;12502;50.678;7.172;2023-01-05T03:15:27;16.70;;;3.67;;
24381;SDS011;12502;50.678;7.172;2023-01-05T03:20:32;13.75;;;3.55;;
24381;SDS011;12502;50.678;7.172;2023-01-05T03:25:36;17.27;;;3.83;;
24381;SDS011;12502;50.678;7.172;2023-01-05T03:30:58;17.70;;;4.15;;
24381;SDS011;12502;50.678;7.172;2023-01-05T03:36:26;12.38;;;3.97;;
24381;SDS011;12502;50.678;7.172;2023-01-05T03:41:29;15.15;;;3.50;;
24381;SDS011;12502;50.678;7.172;2023-01-05T03:46:32;17.45;;;3.72;;
24381;SDS011;12502;50.678;7.172;2023-01-05T03:51:34;13.50;;;3.53;;
24381;SDS011;12502;50.678;7.172;2023-01-05T03:56:42;13.02;;;3.75;;
24381;SDS011;12502;50.678;7.172;2023-01-05T04:01:44;16.50;;;3.63;;
24381;SDS011;12502;50.678;7.172;2023-01-05T04:06:46;16.20;;;3.42;;
24381;SDS011;12502;50.678;7.172;2023-01-05T04:11:47;14.73;;;3.65;;
24381;SDS011;12502;50.678;7.172;2023-01-05T04:16:49;20.55;;;3.55;;
24381;SDS011;12502;50.678;7.172;2023-01-05T04:21:51;27.33;;;4.55;;
24381;SDS011;12502;50.678;7.172;2023-01-05T04:26:52;19.40;;;4.03;;
24381;SDS011;12502;50.678;7.172;2023-01-05T04:31:54;12.77;;;3.38;;
24381;SDS011;12502;50.678;7.172;2023-01-05T04:36:56;16.17;;;4.35;;
24381;SDS011;12502;50.678;7.172;2023-01-05T04:41:57;15.75;;;3.70;;
24381;SDS011;12502;50.678;7.172;2023-01-05T04:46:59;20.55;;;3.78;;
24381;SDS011;12502;50.678;7.172;2023-01-05T04:52:01;14.27;;;3.50;;
24381;SDS011;12502;50.678;7.172;2023-01-05T04:57:02;16.88;;;3.90;;
24381;SDS011;12502;50.678;7.172;2023-01-05T05:02:04;21.77;;;4.50;;
24381;SDS011;12502;50.678;7.172;2023-01-05T05:07:06;19.27;;;4.90;;
24381;SDS011;12502;50.678;7.172;2023-01-05T05:12:07;19.17;;;3.70;;
24381;SDS011;12502;50.678;7.172;2023-01-05T05:17:09;21.17;;;4.25;;
24381;SDS011;12502;50.678;7.172;2023-01-05T05:22:11;22.73;;;5.03;;
24381;SDS011;12502;50.678;7.172;2023-01-05T05:27:13;22.90;;;4.03;;
24381;SDS011;12502;50.678;7.172;2023-01-05T05:32:14;25.45;;;4.53;;
24381;SDS011;12502;50.678;7.172;2023-01-05T05:37:16;19.92;;;4.63;;
24381;SDS011;12502;50.678;7.172;2023-01-05T05:42:18;13.90;;;4.07;;
24381;SDS011;12502;50.678;7.172;2023-01-05T05:47:19;19.98;;;4.10;;
24381;SDS011;12502;50.678;7.172;2023-01-05T05:52:21;21.55;;;3.83;;
24381;SDS011;12502;50.678;7.172;2023-01-05T05:57:23;17.30;;;4.05;;
24381;SDS011;12502;50.678;7.172;2023-01-05T06:02:24;17.52;;;4.88;;
24381;SDS011;12502;50.678;7.172;2023-01-05T06:07:26;18.95;;;3.95;;
24381;SDS011;12502;50.678;7.172;2023-01-05T06:12:28;22.83;;;5.03;;
24381;SDS011;12502;50.678;7.172;2023-01-05T06:17:30;20.90;;;3.97;;
24381;SDS011;12502;50.678;7.172;2023-01-05T06:22:31;18.92;;;3.85;;
24381;SDS011;12502;50.678;7.172;2023-01-05T06:27:33;15.35;;;3.47;;
24381;SDS011;12502;50.678;7.172;2023-01-05T06:32:35;21.13;;;3.92;;
24381;SDS011;12502;50.678;7.172;2023-01-05T06:37:36;17.15;;;3.92;;
24381;SDS011;12502;50.678;7.172;2023-01-05T06:42:38;24.83;;;4.85;;
24381;SDS011;12502;50.678;7.172;2023-01-05T06:47:41;26.67;;;5.03;;
24381;SDS011;12502;50.678;7.172;2023-01-05T06:52:44;22.23;;;3.97;;
24381;SDS011;12502;50.678;7.172;2023-01-05T06:57:45;26.60;;;4.88;;
24381;SDS011;12502;50.678;7.172;2023-01-05T07:02:47;18.90;;;4.20;;
24381;SDS011;12502;50.678;7.172;2023-01-05T07:07:49;25.00;;;4.88;;
24381;SDS011;12502;50.678;7.172;2023-01-05T07:12:51;18.08;;;3.60;;
24381;SDS011;12502;50.678;7.172;2023-01-05T07:17:52;23.27;;;4.60;;
24381;SDS011;12502;50.678;7.172;2023-01-05T07:22:54;22.27;;;4.43;;
24381;SDS011;12502;50.678;7.172;2023-01-05T07:27:56;18.13;;;4.32;;
24381;SDS011;12502;50.678;7.172;2023-01-05T07:32:58;22.52;;;4.75;;
24381;SDS011;12502;50.678;7.172;2023-01-05T07:38:00;23.88;;;4.07;;
24381;SDS011;12502;50.678;7.172;2023-01-05T07:43:02;22.38;;;4.10;;
24381;SDS011;12502;50.678;7.172;2023-01-05T07:48:04;26.88;;;4.95;;
24381;SDS011;12502;50.678;7.172;2023-01-05T07:53:06;22.55;;;4.50;;
24381;SDS011;12502;50.678;7.172;2023-01-05T07:58:08;21.67;;;4.63;;
24381;SDS011;12502;50.678;7.172;2023-01-05T08:03:10;23.25;;;4.97;;
24381;SDS011;12502;50.678;7.172;2023-01-05T08:08:12;17.23;;;4.30;;
24381;SDS011;12502;50.678;7.172;2023-01-05T08:13:22;24.17;;;4.97;;
24381;SDS011;12502;50.678;7.172;2023-01-05T08:18:42;28.40;;;4.72;;
24381;SDS011;12502;50.678;7.172;2023-01-05T08:23:44;26.90;;;5.32;;
24381;SDS011;12502;50.678;7.172;2023-01-05T08:28:46;34.22;;;5.40;;
24381;SDS011;12502;50.678;7.172;2023-01-05T08:33:47;23.27;;;4.82;;
24381;SDS011;12502;50.678;7.172;2023-01-05T08:38:50;24.17;;;4.75;;
24381;SDS011;12502;50.678;7.172;2023-01-05T08:43:56;21.48;;;4.97;;
24381;SDS011;12502;50.678;7.172;2023-01-05T08:49:00;24.00;;;5.05;;
24381;SDS011;12502;50.678;7.172;2023-01-05T08:54:03;26.35;;;4.53;;
24381;SDS011;12502;50.678;7.172;2023-01-05T08:59:05;22.67;;;4.68;;
24381;SDS011;12502;50.678;7.172;2023-01-05T09:04:07;23.13;;;5.30;;
24381;SDS011;12502;50.678;7.172;2023-01-05T09:09:08;24.67;;;5.13;;
24381;SDS011;12502;50.678;7.172;2023-01-05T09:14:10;24.20;;;4.70;;
24381;SDS011;12502;50.678;7.172;2023-01-05T09:19:14;38.38;;;5.45;;
24381;SDS011;12502;50.678;7.172;2023-01-05T09:24:16;29.15;;;5.60;;
24381;SDS011;12502;50.678;7.172;2023-01-05T09:29:18;26.55;;;5.60;;
24381;SDS011;12502;50.678;7.172;2023-01-05T09:34:20;20.05;;;4.57;;
24381;SDS011;12502;50.678;7.172;2023-01-05T09:39:21;32.65;;;5.35;;
24381;SDS011;12502;50.678;7.172;2023-01-05T09:49:28;30.02;;;5.60;;
24381;SDS011;12502;50.678;7.172;2023-01-05T09:54:31;26.27;;;5.40;;
24381;SDS011;12502;50.678;7.172;2023-01-05T09:59:38;30.63;;;5.63;;
24381;SDS011;12502;50.678;7.172;2023-01-05T10:04:43;25.88;;;5.47;;
24381;SDS011;12502;50.678;7.172;2023-01-05T10:09:47;29.25;;;6.25;;
24381;SDS011;12502;50.678;7.172;2023-01-05T10:14:52;27.95;;;5.15;;
24381;SDS011;12502;50.678;7.172;2023-01-05T10:20:02;29.52;;;5.88;;
24381;SDS011;12502;50.678;7.172;2023-01-05T10:25:18;33.10;;;6.65;;
24381;SDS011;12502;50.678;7.172;2023-01-05T10:36:00;27.75;;;5.22;;
24381;SDS011;12502;50.678;7.172;2023-01-05T10:41:57;24.88;;;4.72;;
24381;SDS011;12502;50.678;7.172;2023-01-05T10:47:00;26.40;;;5.57;;
24381;SDS011;12502;50.678;7.172;2023-01-05T10:52:02;17.63;;;5.18;;
24381;SDS011;12502;50.678;7.172;2023-01-05T11:02:37;19.55;;;4.47;;
24381;SDS011;12502;50.678;7.172;2023-01-05T11:07:59;25.00;;;5.43;;
24381;SDS011;12502;50.678;7.172;2023-01-05T11:13:15;26.40;;;4.82;;
24381;SDS011;12502;50.678;7.172;2023-01-05T11:18:33;21.40;;;4.53;;
24381;SDS011;12502;50.678;7.172;2023-01-05T11:23:49;18.38;;;5.25;;
24381;SDS011;12502;50.678;7.172;2023-01-05T11:34:25;25.65;;;6.07;;
24381;SDS011;12502;50.678;7.172;2023-01-05T11:44:36;22.58;;;4.35;;
24381;SDS011;12502;50.678;7.172;2023-01-05T11:49:39;17.08;;;4.03;;
24381;SDS011;12502;50.678;7.172;2023-01-05T11:54:41;21.55;;;4.53;;
24381;SDS011;12502;50.678;7.172;2023-01-05T11:59:44;18.90;;;4.53;;
24381;SDS011;12502;50.678;7.172;2023-01-05T12:15:32;26.30;;;4.53;;
24381;SDS011;12502;50.678;7.172;2023-01-05T12:26:24;15.60;;;3.92;;
24381;SDS011;12502;50.678;7.172;2023-01-05T12:37:16;18.70;;;3.90;;
24381;SDS011;12502;50.678;7.172;2023-01-05T12:47:53;16.00;;;4.60;;
24381;SDS011;12502;50.678;7.172;2023-01-05T13:03:34;22.13;;;4.10;;
24381;SDS011;12502;50.678;7.172;2023-01-05T13:08:50;17.27;;;4.10;;
24381;SDS011;12502;50.678;7.172;2023-01-05T13:14:00;19.23;;;4.32;;
24381;SDS011;12502;50.678;7.172;2023-01-05T13:19:10;20.30;;;3.75;;
24381;SDS011;12502;50.678;7.172;2023-01-05T13:24:34;18.92;;;4.30;;
24381;SDS011;12502;50.678;7.172;2023-01-05T13:29:40;22.67;;;4.60;;
24381;SDS011;12502;50.678;7.172;2023-01-05T13:34:48;23.13;;;3.92;;
24381;SDS011;12502;50.678;7.172;2023-01-05T13:40:12;17.63;;;3.92;;
24381;SDS011;12502;50.678;7.172;2023-01-05T13:55:58;20.83;;;4.60;;
24381;SDS011;12502;50.678;7.172;2023-01-05T14:01:03;22.95;;;5.13;;
24381;SDS011;12502;50.678;7.172;2023-01-05T14:06:25;22.85;;;4.85;;
24381;SDS011;12502;50.678;7.172;2023-01-05T14:11:30;17.48;;;5.13;;
24381;SDS011;12502;50.678;7.172;2023-01-05T14:26:58;20.80;;;5.38;;
24381;SDS011;12502;50.678;7.172;2023-01-05T14:32:05;20.02;;;4.47;;
24381;SDS011;12502;50.678;7.172;2023-01-05T14:37:14;20.75;;;4.93;;
24381;SDS011;12502;50.678;7.172;2023-01-05T14:48:25;19.13;;;4.20;;
24381;SDS011;12502;50.678;7.172;2023-01-05T14:53:11;24.17;;;5.20;;
24381;SDS011;12502;50.678;7.172;2023-01-05T14:58:45;20.67;;;4.88;;
24381;SDS011;12502;50.678;7.172;2023-01-05T15:03:43;18.73;;;5.07;;
24381;SDS011;12502;50.678;7.172;2023-01-05T15:25:19;23.58;;;4.82;;
24381;SDS011;12502;50.678;7.172;2023-01-05T15:35:39;21.92;;;5.00;;
24381;SDS011;12502;50.678;7.172;2023-01-05T15:40:45;22.98;;;4.72;;
24381;SDS011;12502;50.678;7.172;2023-01-05T15:45:48;15.32;;;4.05;;
24381;SDS011;12502;50.678;7.172;2023-01-05T15:50:54;25.92;;;5.03;;
24381;SDS011;12502;50.678;7.172;2023-01-05T15:55:58;19.58;;;4.30;;
24381;SDS011;12502;50.678;7.172;2023-01-05T16:01:09;27.77;;;4.95;;
24381;SDS011;12502;50.678;7.172;2023-01-05T16:11:26;20.70;;;4.55;;
24381;SDS011;12502;50.678;7.172;2023-01-05T16:16:36;21.23;;;5.20;;
24381;SDS011;12502;50.678;7.172;2023-01-05T16:27:09;19.95;;;4.95;;
24381;SDS011;12502;50.678;7.172;2023-01-05T16:32:32;24.08;;;4.93;;
24381;SDS011;12502;50.678;7.172;2023-01-05T16:37:34;22.55;;;5.28;;
24381;SDS011;12502;50.678;7.172;2023-01-05T16:42:39;26.10;;;5.38;;
24381;SDS011;12502;50.678;7.172;2023-01-05T16:47:48;29.75;;;5.40;;
24381;SDS011;12502;50.678;7.172;2023-01-05T17:03:31;25.58;;;5.75;;
24381;SDS011;12502;50.678;7.172;2023-01-05T17:08:33;27.95;;;7.18;;
24381;SDS011;12502;50.678;7.172;2023-01-05T17:13:42;29.20;;;6.47;;
24381;SDS011;12502;50.678;7.172;2023-01-05T17:18:45;25.17;;;6.38;;
24381;SDS011;12502;50.678;7.172;2023-01-05T17:23:48;24.05;;;5.65;;
24381;SDS011;12502;50.678;7.172;2023-01-05T17:28:53;33.53;;;6.03;;
24381;SDS011;12502;50.678;7.172;2023-01-05T17:33:57;25.60;;;5.68;;
24381;SDS011;12502;50.678;7.172;2023-01-05T17:38:59;30.00;;;5.90;;
24381;SDS011;12502;50.678;7.172;2023-01-05T17:44:01;27.85;;;6.28;;
24381;SDS011;12502;50.678;7.172;2023-01-05T17:49:03;29.20;;;6.32;;
24381;SDS011;12502;50.678;7.172;2023-01-05T17:54:05;25.70;;;6.22;;
24381;SDS011;12502;50.678;7.172;2023-01-05T17:59:07;28.65;;;6.30;;
24381;SDS011;12502;50.678;7.172;2023-01-05T18:04:09;27.08;;;6.50;;
24381;SDS011;12502;50.678;7.172;2023-01-05T18:09:11;29.90;;;6.20;;
24381;SDS011;12502;50.678;7.172;2023-01-05T18:14:12;28.52;;;6.40;;
24381;SDS011;12502;50.678;7.172;2023-01-05T18:19:14;29.48;;;6.95;;
24381;SDS011;12502;50.678;7.172;2023-01-05T18:24:16;24.42;;;6.10;;
24381;SDS011;12502;50.678;7.172;2023-01-05T18:29:18;28.83;;;6.45;;
24381;SDS011;12502;50.678;7.172;2023-01-05T18:34:20;26.85;;;6.53;;
24381;SDS011;12502;50.678;7.172;2023-01-05T18:39:22;25.33;;;6.57;;
24381;SDS011;12502;50.678;7.172;2023-01-05T18:44:24;24.90;;;6.55;;
24381;SDS011;12502;50.678;7.172;2023-01-05T18:49:26;23.88;;;5.65;;
24381;SDS011;12502;50.678;7.172;2023-01-05T18:54:28;16.70;;;5.60;;
24381;SDS011;12502;50.678;7.172;2023-01-05T18:59:30;23.00;;;6.03;;
24381;SDS011;12502;50.678;7.172;2023-01-05T19:04:32;23.10;;;6.38;;
24381;SDS011;12502;50.678;7.172;2023-01-05T19:09:33;25.98;;;6.50;;
24381;SDS011;12502;50.678;7.172;2023-01-05T19:14:35;25.42;;;7.68;;
24381;SDS011;12502;50.678;7.172;2023-01-05T19:19:37;26.63;;;7.13;;
24381;SDS011;12502;50.678;7.172;2023-01-05T19:24:39;30.70;;;8.15;;
24381;SDS011;12502;50.678;7.172;2023-01-05T19:29:41;21.27;;;6.20;;
24381;SDS011;12502;50.678;7.172;2023-01-05T19:34:42;21.48;;;5.78;;
24381;SDS011;12502;50.678;7.172;2023-01-05T19:39:44;29.33;;;6.75;;
24381;SDS011;12502;50.678;7.172;2023-01-05T19:44:46;23.70;;;5.88;;
24381;SDS011;12502;50.678;7.172;2023-01-05T19:49:48;25.90;;;7.82;;
24381;SDS011;12502;50.678;7.172;2023-01-05T19:54:50;28.50;;;8.50;;
24381;SDS011;12502;50.678;7.172;2023-01-05T19:59:51;32.03;;;8.40;;
24381;SDS011;12502;50.678;7.172;2023-01-05T20:04:53;23.85;;;7.13;;
24381;SDS011;12502;50.678;7.172;2023-01-05T20:09:55;21.25;;;7.55;;
24381;SDS011;12502;50.678;7.172;2023-01-05T20:14:58;28.10;;;8.38;;
24381;SDS011;12502;50.678;7.172;2023-01-05T20:19:59;18.85;;;7.20;;
24381;SDS011;12502;50.678;7.172;2023-01-05T20:25:02;22.52;;;7.03;;
24381;SDS011;12502;50.678;7.172;2023-01-05T20:30:05;23.27;;;7.32;;
24381;SDS011;12502;50.678;7.172;2023-01-05T20:35:09;25.73;;;8.07;;
24381;SDS011;12502;50.678;7.172;2023-01-05T20:40:12;23.58;;;7.15;;
24381;SDS011;12502;50.678;7.172;2023-01-05T20:45:13;26.05;;;7.38;;
24381;SDS011;12502;50.678;7.172;2023-01-05T20:50:16;16.10;;;6.47;;
24381;SDS011;12502;50.678;7.172;2023-01-05T20:55:18;20.38;;;6.80;;
24381;SDS011;12502;50.678;7.172;2023-01-05T21:00:19;20.38;;;6.47;;
24381;SDS011;12502;50.678;7.172;2023-01-05T21:05:21;17.55;;;7.03;;
24381;SDS011;12502;50.678;7.172;2023-01-05T21:10:23;13.75;;;5.25;;
24381;SDS011;12502;50.678;7.172;2023-01-05T21:15:24;13.73;;;6.05;;
24381;SDS011;12502;50.678;7.172;2023-01-05T21:20:27;15.90;;;5.78;;
24381;SDS011;12502;50.678;7.172;2023-01-05T21:25:29;15.45;;;6.90;;
24381;SDS011;12502;50.678;7.172;2023-01-05T21:30:51;18.42;;;8.05;;
24381;SDS011;12502;50.678;7.172;2023-01-05T21:35:53;14.27;;;5.30;;
24381;SDS011;12502;50.678;7.172;2023-01-05T21:41:02;15.85;;;6.55;;
24381;SDS011;12502;50.678;7.172;2023-01-05T21:46:07;15.38;;;5.97;;
24381;SDS011;12502;50.678;7.172;2023-01-05T21:51:11;14.90;;;5.85;;
24381;SDS011;12502;50.678;7.172;2023-01-05T21:56:33;15.48;;;5.97;;
24381;SDS011;12502;50.678;7.172;2023-01-05T22:01:38;17.25;;;7.05;;
24381;SDS011;12502;50.678;7.172;2023-01-05T22:06:40;10.00;;;4.70;;
24381;SDS011;12502;50.678;7.172;2023-01-05T22:11:42;7.45;;;4.03;;
24381;SDS011;12502;50.678;7.172;2023-01-05T22:16:43;8.23;;;4.43;;
24381;SDS011;12502;50.678;7.172;2023-01-05T22:21:45;13.45;;;6.30;;
24381;SDS011;12502;50.678;7.172;2023-01-05T22:26:47;15.55;;;6.82;;
24381;SDS011;12502;50.678;7.172;2023-01-05T22:31:48;12.88;;;5.85;;
24381;SDS011;12502;50.678;7.172;2023-01-05T22:36:51;11.77;;;5.15;;
24381;SDS011;12502;50.678;7.172;2023-01-05T22:41:53;11.68;;;5.68;;
24381;SDS011;12502;50.678;7.172;2023-01-05T22:46:55;18.30;;;7.97;;
24381;SDS011;12502;50.678;7.172;2023-01-05T22:51:57;13.00;;;5.60;;
24381;SDS011;12502;50.678;7.172;2023-01-05T22:56:58;15.32;;;6.38;;
24381;SDS011;12502;50.678;7.172;2023-01-05T23:02:00;12.43;;;5.57;;
24381;SDS011;12502;50.678;7.172;2023-01-05T23:07:02;9.07;;;5.32;;
24381;SDS011;12502;50.678;7.172;2023-01-05T23:12:04;12.38;;;5.38;;
24381;SDS011;12502;50.678;7.172;2023-01-05T23:17:06;11.73;;;5.78;;
24381;SDS011;12502;50.678;7.172;2023-01-05T23:22:12;11.55;;;5.70;;
24381;SDS011;12502;50.678;7.172;2023-01-05T23:27:13;10.98;;;6.38;;
24381;SDS011;12502;50.678;7.172;2023-01-05T23:32:15;12.75;;;7.28;;
24381;SDS011;12502;50.678;7.172;2023-01-05T23:37:17;13.43;;;7.43;;
24381;SDS011;12502;50.678;7.172;2023-01-05T23:42:19;9.55;;;6.15;;
24381;SDS011;12502;50.678;7.172;2023-01-05T23:47:39;12.32;;;5.90;;
24381;SDS011;12502;50.678;7.172;2023-01-05T23:52:41;10.32;;;6.40;;
24381;SDS011;12502;50.678;7.172;2023-01-05T23:57:43;13.65;;;6.68;;
